createdAt,value
2022-12-11T00:00:40.992Z,0.12
2022-12-11T00:03:12.765Z,0.13
2022-12-11T00:05:42.514Z,0.13
2022-12-11T00:08:08.967Z,0.14
2022-12-11T00:10:37.943Z,0.15
2022-12-11T00:13:05.136Z,0.17
2022-12-11T00:15:32.201Z,0.19
2022-12-11T00:17:58.621Z,0.19
2022-12-11T00:20:25.045Z,0.19
2022-12-11T00:22:51.377Z,0.20
2022-12-11T00:25:17.890Z,0.21
2022-12-11T00:27:46.129Z,0.24
2022-12-11T00:30:13.182Z,0.26
2022-12-11T00:32:39.580Z,0.23
2022-12-11T00:35:06.167Z,0.25
2022-12-11T00:37:32.630Z,0.26
2022-12-11T00:39:59.074Z,0.27
2022-12-11T00:42:25.458Z,0.26
2022-12-11T00:44:52.085Z,0.28
2022-12-11T00:47:18.427Z,0.29
2022-12-11T00:49:49.569Z,0.29
2022-12-11T00:52:17.968Z,0.31
2022-12-11T00:54:44.929Z,0.32
2022-12-11T00:57:11.458Z,0.31
2022-12-11T00:59:37.866Z,0.34
2022-12-11T01:02:04.247Z,0.35
2022-12-11T01:04:30.630Z,0.37
2022-12-11T01:06:57.027Z,0.36
2022-12-11T01:09:41.789Z,0.37
2022-12-11T01:12:08.217Z,0.37
2022-12-11T01:14:34.605Z,0.37
2022-12-11T01:17:00.968Z,0.38
2022-12-11T01:19:27.404Z,0.39
2022-12-11T01:21:54.058Z,0.41
2022-12-11T01:24:20.621Z,0.41
2022-12-11T01:26:46.992Z,0.41
2022-12-11T01:29:13.305Z,0.40
2022-12-11T01:31:39.690Z,0.40
2022-12-11T01:34:06.040Z,0.40
2022-12-11T01:36:32.421Z,0.41
2022-12-11T01:38:58.798Z,0.41
2022-12-11T01:41:25.181Z,0.41
2022-12-11T01:44:03.736Z,0.42
2022-12-11T01:46:31.587Z,0.43
2022-12-11T01:48:59.764Z,0.45
2022-12-11T01:51:29.298Z,0.43
2022-12-11T01:54:02.301Z,0.43
2022-12-11T01:56:32.410Z,0.44
2022-12-11T01:59:02.920Z,0.44
2022-12-11T02:01:37.033Z,0.45
2022-12-11T02:04:04.317Z,0.44
2022-12-11T02:06:34.974Z,0.44
2022-12-11T02:09:03.336Z,0.43
2022-12-11T02:11:40.483Z,0.46
2022-12-11T02:14:48.503Z,0.45
2022-12-11T02:17:22.562Z,0.45
2022-12-11T02:20:12.921Z,0.47
2022-12-11T02:22:48.276Z,0.47
2022-12-11T02:25:25.665Z,0.48
2022-12-11T02:28:06.660Z,0.49
2022-12-11T02:30:37.099Z,0.49
2022-12-11T02:33:03.599Z,0.50
2022-12-11T02:35:38.089Z,0.52
2022-12-11T02:38:10.146Z,0.52
2022-12-11T02:40:39.857Z,0.54
2022-12-11T02:43:09.984Z,0.55
2022-12-11T02:45:39.699Z,0.55
2022-12-11T02:48:08.127Z,0.55
2022-12-11T02:50:37.948Z,0.56
2022-12-11T02:53:07.229Z,0.58
2022-12-11T02:55:37.327Z,0.60
2022-12-11T02:58:13.026Z,0.60
2022-12-11T03:00:39.562Z,0.61
2022-12-11T03:03:06.157Z,0.61
2022-12-11T03:05:32.681Z,0.61
2022-12-11T03:07:59.129Z,0.64
2022-12-11T03:10:25.570Z,0.63
2022-12-11T03:12:55.443Z,0.64
2022-12-11T03:15:30.175Z,0.63
2022-12-11T03:18:35.602Z,0.65
2022-12-11T03:21:23.984Z,0.64
2022-12-11T03:24:05.146Z,0.65
2022-12-11T03:26:39.178Z,0.66
2022-12-11T03:29:16.768Z,0.67
2022-12-11T03:32:09.489Z,0.69
2022-12-11T03:34:44.425Z,0.69
2022-12-11T03:37:13.221Z,0.68
2022-12-11T03:39:46.623Z,0.69
2022-12-11T03:42:16.441Z,0.69
2022-12-11T03:44:47.574Z,0.70
2022-12-11T03:47:19.750Z,0.70
2022-12-11T03:49:48.536Z,0.71
2022-12-11T03:52:16.821Z,0.71
2022-12-11T03:54:46.233Z,0.71
2022-12-11T03:57:16.101Z,0.73
2022-12-11T03:59:42.567Z,0.72
2022-12-11T04:02:10.693Z,0.71
2022-12-11T04:04:41.698Z,0.71
2022-12-11T04:07:09.178Z,0.71
2022-12-11T04:09:35.727Z,0.72
2022-12-11T04:12:02.045Z,0.71
2022-12-11T04:14:47.322Z,0.72
2022-12-11T04:17:33.654Z,0.72
2022-12-11T04:20:18.522Z,0.72
2022-12-11T04:23:03.246Z,0.70
2022-12-11T04:25:29.650Z,0.68
2022-12-11T04:27:56.025Z,0.69
2022-12-11T04:30:28.009Z,0.69
2022-12-11T04:32:57.178Z,0.68
2022-12-11T04:35:23.638Z,0.68
2022-12-11T04:37:50.242Z,0.67
2022-12-11T04:40:19.049Z,0.67
2022-12-11T04:42:45.701Z,0.66
2022-12-11T04:45:13.127Z,0.66
2022-12-11T04:47:41.255Z,0.64
2022-12-11T04:50:11.408Z,0.64
2022-12-11T04:52:37.863Z,0.64
2022-12-11T04:55:06.274Z,0.63
2022-12-11T04:57:32.673Z,0.62
2022-12-11T04:59:59.867Z,0.62
2022-12-11T05:02:26.804Z,0.63
2022-12-11T05:04:53.237Z,0.61
2022-12-11T05:07:19.601Z,0.59
2022-12-11T05:09:45.954Z,0.57
2022-12-11T05:12:12.287Z,0.58
2022-12-11T05:14:38.797Z,0.56
2022-12-11T05:17:05.186Z,0.56
2022-12-11T05:19:31.558Z,0.55
2022-12-11T05:21:57.940Z,0.55
2022-12-11T05:24:24.334Z,0.54
2022-12-11T05:26:50.743Z,0.54
2022-12-11T05:29:17.087Z,0.55
2022-12-11T05:31:43.738Z,0.55
2022-12-11T05:34:10.291Z,0.55
2022-12-11T05:36:36.933Z,0.55
2022-12-11T05:39:04.275Z,0.55
2022-12-11T05:41:32.674Z,0.54
2022-12-11T05:44:00.210Z,0.52
2022-12-11T05:46:29.182Z,0.53
2022-12-11T05:48:58.231Z,0.54
2022-12-11T05:51:25.448Z,0.54
2022-12-11T05:53:53.007Z,0.54
2022-12-11T05:56:28.195Z,0.52
2022-12-11T05:58:55.707Z,0.50
2022-12-11T06:01:26.550Z,0.52
2022-12-11T06:03:54.451Z,0.53
2022-12-11T06:06:21.221Z,0.52
2022-12-11T06:08:51.146Z,0.52
2022-12-11T06:11:23.609Z,0.51
2022-12-11T06:13:50.561Z,0.51
2022-12-11T06:16:17.098Z,0.52
2022-12-11T06:18:44.906Z,0.52
2022-12-11T06:21:15.071Z,0.50
2022-12-11T06:23:42.626Z,0.51
2022-12-11T06:26:10.329Z,0.51
2022-12-11T06:28:37.246Z,0.51
2022-12-11T06:31:04.748Z,0.49
2022-12-11T06:33:31.483Z,0.50
2022-12-11T06:36:05.904Z,0.50
2022-12-11T06:38:32.507Z,0.50
2022-12-11T06:41:02.472Z,0.51
2022-12-11T06:43:28.801Z,0.50
2022-12-11T06:45:59.167Z,0.50
2022-12-11T06:48:28.657Z,0.48
2022-12-11T06:50:55.052Z,0.48
2022-12-11T06:53:22.061Z,0.49
2022-12-11T06:55:48.401Z,0.50
2022-12-11T06:58:14.859Z,0.50
2022-12-11T07:00:41.323Z,0.50
2022-12-11T07:03:07.774Z,0.51
2022-12-11T07:05:34.463Z,0.51
2022-12-11T07:08:01.633Z,0.50
2022-12-11T07:10:28.025Z,0.49
2022-12-11T07:12:54.818Z,0.48
2022-12-11T07:15:21.320Z,0.48
2022-12-11T07:17:47.709Z,0.48
2022-12-11T07:20:14.284Z,0.49
2022-12-11T07:22:46.271Z,0.49
2022-12-11T07:25:13.663Z,0.49
2022-12-11T07:27:41.404Z,0.48
2022-12-11T07:30:09.111Z,0.46
2022-12-11T07:32:35.682Z,0.45
2022-12-11T07:35:02.198Z,0.46
2022-12-11T07:37:28.582Z,0.45
2022-12-11T07:39:54.995Z,0.45
2022-12-11T07:42:21.466Z,0.44
2022-12-11T07:44:47.946Z,0.44
2022-12-11T07:47:14.312Z,0.43
2022-12-11T07:49:40.698Z,0.43
2022-12-11T07:52:07.037Z,0.42
2022-12-11T07:54:33.399Z,0.42
2022-12-11T07:56:59.783Z,0.43
2022-12-11T07:59:26.231Z,0.41
2022-12-11T08:01:52.762Z,0.41
2022-12-11T08:04:19.215Z,0.41
2022-12-11T08:06:45.637Z,0.40
2022-12-11T08:09:20.613Z,0.39
2022-12-11T08:11:51.897Z,0.39
2022-12-11T08:14:19.535Z,0.37
2022-12-11T08:16:46.069Z,0.37
2022-12-11T08:19:13.309Z,0.36
2022-12-11T08:21:40.639Z,0.35
2022-12-11T08:24:08.828Z,0.35
2022-12-11T08:26:35.193Z,0.36
2022-12-11T08:29:02.585Z,0.30
2022-12-11T08:31:29.844Z,0.33
2022-12-11T08:33:57.248Z,0.30
2022-12-11T08:36:24.187Z,0.31
2022-12-11T08:38:51.188Z,0.31
2022-12-11T08:41:20.361Z,0.31
2022-12-11T08:43:47.015Z,0.31
2022-12-11T08:46:14.542Z,0.28
2022-12-11T08:48:42.563Z,0.26
2022-12-11T08:51:13.863Z,0.29
2022-12-11T08:53:40.671Z,0.29
2022-12-11T08:56:13.501Z,0.26
2022-12-11T08:58:39.993Z,0.24
2022-12-11T09:01:08.905Z,0.23
2022-12-11T09:03:37.025Z,0.23
2022-12-11T09:06:05.577Z,0.23
2022-12-11T09:08:33.381Z,0.23
2022-12-11T09:11:07.050Z,0.24
2022-12-11T09:13:33.808Z,0.25
2022-12-11T09:16:00.485Z,0.32
2022-12-11T09:18:27.217Z,0.38
2022-12-11T09:21:05.125Z,0.47
2022-12-11T09:23:31.549Z,0.53
2022-12-11T09:25:58.266Z,0.56
2022-12-11T09:28:25.822Z,0.55
2022-12-11T09:30:52.607Z,0.55
2022-12-11T09:33:19.202Z,0.59
2022-12-11T09:35:45.587Z,0.57
2022-12-11T09:38:11.978Z,0.57
2022-12-11T09:40:43.231Z,0.59
2022-12-11T09:43:16.913Z,0.65
2022-12-11T09:45:43.273Z,0.72
2022-12-11T09:48:11.094Z,0.75
2022-12-11T09:50:37.637Z,0.78
2022-12-11T09:53:13.050Z,0.75
2022-12-11T09:55:54.753Z,0.80
2022-12-11T09:58:34.495Z,0.84
2022-12-11T10:01:14.369Z,0.89
2022-12-11T10:03:50.314Z,0.89
2022-12-11T10:06:22.771Z,0.96
2022-12-11T10:09:13.775Z,1.01
2022-12-11T10:11:56.933Z,0.96
2022-12-11T10:14:44.175Z,1.07
2022-12-11T10:17:16.086Z,1.05
2022-12-11T10:19:42.931Z,1.02
2022-12-11T10:22:18.230Z,1.05
2022-12-11T10:27:41.432Z,1.08
2022-12-11T10:30:34.734Z,1.23
2022-12-11T10:33:38.777Z,1.32
2022-12-11T10:36:08.835Z,1.28
2022-12-11T10:38:41.147Z,1.22
2022-12-11T10:41:18.867Z,1.25
2022-12-11T10:43:48.872Z,1.35
2022-12-11T10:46:32.995Z,1.30
2022-12-11T10:49:00.541Z,1.21
2022-12-11T10:51:32.912Z,1.16
2022-12-11T10:54:24.716Z,1.13
2022-12-11T10:56:51.539Z,1.12
2022-12-11T10:59:29.642Z,1.17
2022-12-11T11:01:57.581Z,1.23
2022-12-11T11:04:31.222Z,1.22
2022-12-11T11:07:03.421Z,1.25
2022-12-11T11:09:35.449Z,1.31
2022-12-11T11:12:07.696Z,1.38
2022-12-11T11:14:34.654Z,1.41
2022-12-11T11:17:01.347Z,1.40
2022-12-11T11:19:32.404Z,1.40
2022-12-11T11:22:06.576Z,1.34
2022-12-11T11:24:40.570Z,1.35
2022-12-11T11:27:48.708Z,1.36
2022-12-11T11:30:35.306Z,1.42
2022-12-11T11:33:12.724Z,1.41
2022-12-11T11:35:44.222Z,1.41
2022-12-11T11:38:26.656Z,1.44
2022-12-11T11:41:10.107Z,1.47
2022-12-11T11:43:47.363Z,1.47
2022-12-11T11:46:25.758Z,1.55
2022-12-11T11:49:20.618Z,1.49
2022-12-11T11:52:01.043Z,1.52
2022-12-11T11:54:36.060Z,1.52
2022-12-11T11:57:15.710Z,1.54
2022-12-11T11:59:47.510Z,1.59
2022-12-11T12:02:16.701Z,1.61
2022-12-11T12:04:44.039Z,1.54
2022-12-11T12:07:23.725Z,1.54
2022-12-11T12:10:35.272Z,1.53
2022-12-11T12:13:44.743Z,1.50
2022-12-11T12:16:02.889Z,1.49
2022-12-11T12:18:58.615Z,1.51
2022-12-11T12:21:35.537Z,1.55
2022-12-11T12:24:35.951Z,1.58
2022-12-11T12:27:50.398Z,1.66
2022-12-11T12:30:21.988Z,1.67
2022-12-11T12:33:25.968Z,1.65
2022-12-11T12:36:13.432Z,1.67
2022-12-11T12:39:04.423Z,1.67
2022-12-11T12:41:30.848Z,1.65
2022-12-11T12:44:02.792Z,1.61
2022-12-11T12:46:54.978Z,1.62
2022-12-11T12:49:33.256Z,1.67
2022-12-11T12:52:01.814Z,1.67
2022-12-11T12:54:30.152Z,1.63
2022-12-11T12:56:58.796Z,1.52
2022-12-11T12:59:27.374Z,1.51
2022-12-11T13:01:59.919Z,1.50
2022-12-11T13:04:56.716Z,1.52
2022-12-11T13:07:30.075Z,1.47
2022-12-11T13:09:59.750Z,1.43
2022-12-11T13:12:41.905Z,1.43
2022-12-11T13:15:43.510Z,1.40
2022-12-11T13:18:34.796Z,1.44
2022-12-11T13:21:03.298Z,1.49
2022-12-11T13:23:32.194Z,1.46
2022-12-11T13:26:01.055Z,1.38
2022-12-11T13:28:33.094Z,1.37
2022-12-11T13:31:02.179Z,1.40
2022-12-11T13:33:30.452Z,1.43
2022-12-11T13:36:15.762Z,1.42
2022-12-11T13:38:48.927Z,1.38
2022-12-11T13:41:15.498Z,1.42
2022-12-11T13:43:44.042Z,1.38
2022-12-11T13:46:13.495Z,1.39
2022-12-11T13:48:47.788Z,1.36
2022-12-11T13:51:18.317Z,1.33
2022-12-11T13:53:45.297Z,1.34
2022-12-11T13:56:22.426Z,1.30
2022-12-11T13:58:49.020Z,1.27
2022-12-11T14:01:29.095Z,1.21
2022-12-11T14:03:58.918Z,1.19
2022-12-11T14:06:27.924Z,1.15
2022-12-11T14:08:57.077Z,1.14
2022-12-11T14:11:39.042Z,1.12
2022-12-11T14:14:16.536Z,1.13
2022-12-11T14:16:43.077Z,1.11
2022-12-11T14:19:10.865Z,1.12
2022-12-11T14:21:37.346Z,1.13
2022-12-11T14:24:06.434Z,1.16
2022-12-11T14:26:34.995Z,1.15
2022-12-11T14:29:02.734Z,1.13
2022-12-11T14:31:34.805Z,1.11
2022-12-11T14:34:28.127Z,1.12
2022-12-11T14:36:56.025Z,1.10
2022-12-11T14:39:33.877Z,1.08
2022-12-11T14:42:04.929Z,1.04
2022-12-11T14:44:42.266Z,1.06
2022-12-11T14:47:18.849Z,1.04
2022-12-11T14:49:54.340Z,1.06
2022-12-11T14:52:29.139Z,1.06
2022-12-11T14:55:03.781Z,1.05
2022-12-11T14:57:33.074Z,1.04
2022-12-11T14:59:59.954Z,1.04
2022-12-11T15:02:35.516Z,1.04
2022-12-11T15:05:10.713Z,1.03
2022-12-11T15:07:37.274Z,1.04
2022-12-11T15:10:04.569Z,1.03
2022-12-11T15:12:31.806Z,1.02
2022-12-11T15:15:06.313Z,0.98
2022-12-11T15:17:36.951Z,0.94
2022-12-11T15:20:08.692Z,0.94
2022-12-11T15:22:36.270Z,0.93
2022-12-11T15:25:03.617Z,0.94
2022-12-11T15:27:39.789Z,0.94
2022-12-11T15:30:26.368Z,0.94
2022-12-11T15:33:17.342Z,0.95
2022-12-11T15:35:56.235Z,0.94
2022-12-11T15:38:48.915Z,0.93
2022-12-11T15:41:20.965Z,0.93
2022-12-11T15:43:47.878Z,0.93
2022-12-11T15:46:14.351Z,0.92
2022-12-11T15:48:40.814Z,0.93
2022-12-11T15:51:07.287Z,0.93
2022-12-11T15:53:33.652Z,0.94
2022-12-11T15:56:00.363Z,0.93
2022-12-11T15:58:27.331Z,0.92
2022-12-11T16:00:54.661Z,0.91
2022-12-11T16:03:22.747Z,0.91
2022-12-11T16:05:51.342Z,0.89
2022-12-11T16:08:21.571Z,0.89
2022-12-11T16:10:48.735Z,0.90
2022-12-11T16:13:15.176Z,0.90
2022-12-11T16:15:44.695Z,0.89
2022-12-11T16:18:14.129Z,0.89
2022-12-11T16:20:41.660Z,0.88
2022-12-11T16:23:09.416Z,0.88
2022-12-11T16:25:39.930Z,0.86
2022-12-11T16:28:06.901Z,0.84
2022-12-11T16:30:35.879Z,0.82
2022-12-11T16:33:10.297Z,0.84
2022-12-11T16:35:38.688Z,0.82
2022-12-11T16:38:05.224Z,0.85
2022-12-11T16:40:31.662Z,0.85
2022-12-11T16:42:58.097Z,0.84
2022-12-11T16:45:26.099Z,0.85
2022-12-11T16:47:52.987Z,0.85
2022-12-11T16:50:19.682Z,0.85
2022-12-11T16:52:47.239Z,0.83
2022-12-11T16:55:15.064Z,0.82
2022-12-11T16:57:41.941Z,0.82
2022-12-11T17:00:12.070Z,0.80
2022-12-11T17:02:38.802Z,0.81
2022-12-11T17:05:05.544Z,0.80
2022-12-11T17:07:32.697Z,0.80
2022-12-11T17:10:00.566Z,0.80
2022-12-11T17:12:27.895Z,0.80
2022-12-11T17:14:55.584Z,0.80
2022-12-11T17:17:21.976Z,0.78
2022-12-11T17:19:48.384Z,0.79
2022-12-11T17:22:15.173Z,0.77
2022-12-11T17:24:41.529Z,0.77
2022-12-11T17:27:08.233Z,0.76
2022-12-11T17:29:34.658Z,0.76
2022-12-11T17:32:03.007Z,0.77
2022-12-11T17:34:34.588Z,0.76
2022-12-11T17:37:04.510Z,0.76
2022-12-11T17:39:32.342Z,0.77
2022-12-11T17:41:58.851Z,0.75
2022-12-11T17:44:26.507Z,0.74
2022-12-11T17:46:53.065Z,0.74
2022-12-11T17:49:19.728Z,0.73
2022-12-11T17:51:46.294Z,0.72
2022-12-11T17:54:12.811Z,0.71
2022-12-11T17:56:39.291Z,0.72
2022-12-11T17:59:05.911Z,0.70
2022-12-11T18:01:32.985Z,0.71
2022-12-11T18:04:01.634Z,0.70
2022-12-11T18:06:28.994Z,0.71
2022-12-11T18:08:55.795Z,0.70
2022-12-11T18:11:23.033Z,0.69
2022-12-11T18:13:50.742Z,0.66
2022-12-11T18:16:28.783Z,0.68
2022-12-11T18:18:56.387Z,0.68
2022-12-11T18:21:26.122Z,0.69
2022-12-11T18:23:53.387Z,0.68
2022-12-11T18:26:20.112Z,0.68
2022-12-11T18:28:47.547Z,0.64
2022-12-11T18:31:14.483Z,0.64
2022-12-11T18:33:42.806Z,0.63
2022-12-11T18:36:10.294Z,0.63
2022-12-11T18:38:37.190Z,0.63
2022-12-11T18:41:05.664Z,0.62
2022-12-11T18:43:32.421Z,0.60
2022-12-11T18:45:58.862Z,0.63
2022-12-11T18:48:25.229Z,0.61
2022-12-11T18:50:52.596Z,0.59
2022-12-11T18:53:19.521Z,0.57
2022-12-11T18:55:48.433Z,0.53
2022-12-11T18:58:16.944Z,0.51
2022-12-11T19:00:43.599Z,0.47
2022-12-11T19:03:10.759Z,0.46
2022-12-11T19:05:40.260Z,0.47
2022-12-11T19:08:06.735Z,0.44
2022-12-11T19:10:33.220Z,0.43
2022-12-11T19:12:59.630Z,0.44
2022-12-11T19:15:27.466Z,0.45
2022-12-11T19:17:53.814Z,0.43
2022-12-11T19:23:06.744Z,0.39
2022-12-11T19:25:33.622Z,0.38
2022-12-11T19:28:00.279Z,0.37
2022-12-11T19:30:26.709Z,0.36
2022-12-11T19:32:53.106Z,0.34
2022-12-11T19:35:19.576Z,0.33
2022-12-11T19:37:45.912Z,0.32
2022-12-11T19:40:14.323Z,0.30
2022-12-11T19:42:40.777Z,0.30
2022-12-11T19:45:07.500Z,0.30
2022-12-11T19:47:34.689Z,0.30
2022-12-11T19:50:01.017Z,0.30
2022-12-11T19:52:27.479Z,0.28
2022-12-11T19:54:53.893Z,0.28
2022-12-11T19:57:20.306Z,0.28
2022-12-11T19:59:47.997Z,0.26
2022-12-11T20:02:16.746Z,0.24
2022-12-11T20:04:43.206Z,0.24
2022-12-11T20:07:09.676Z,0.23
2022-12-11T20:09:36.029Z,0.21
2022-12-11T20:12:03.382Z,0.21
2022-12-11T20:14:29.912Z,0.21
2022-12-11T20:17:14.727Z,0.22
2022-12-11T20:19:42.106Z,0.22
2022-12-11T20:22:09.169Z,0.23
2022-12-11T20:24:35.946Z,0.23
2022-12-11T20:27:02.647Z,0.22
2022-12-11T20:29:29.053Z,0.19
2022-12-11T20:31:55.544Z,0.18
2022-12-11T20:34:21.986Z,0.19
2022-12-11T20:36:48.859Z,0.18
2022-12-11T20:39:15.577Z,0.17
2022-12-11T20:41:42.015Z,0.19
2022-12-11T20:44:08.491Z,0.20
2022-12-11T20:46:35.011Z,0.20
2022-12-11T20:49:01.584Z,0.20
2022-12-11T20:51:28.932Z,0.18
2022-12-11T20:53:59.064Z,0.21
2022-12-11T20:56:29.437Z,0.20
2022-12-11T20:58:57.508Z,0.17
2022-12-11T21:01:25.993Z,0.15
2022-12-11T21:03:53.479Z,0.15
2022-12-11T21:06:25.976Z,0.17
2022-12-11T21:08:53.782Z,0.17
2022-12-11T21:11:20.413Z,0.16
2022-12-11T21:13:46.936Z,0.17
2022-12-11T21:16:13.440Z,0.20
2022-12-11T21:18:41.429Z,0.19
2022-12-11T21:21:07.898Z,0.18
2022-12-11T21:23:34.574Z,0.18
2022-12-11T21:26:01.634Z,0.20
2022-12-11T21:28:33.566Z,0.21
2022-12-11T21:31:07.562Z,0.21
2022-12-11T21:33:34.101Z,0.22
2022-12-11T21:36:00.857Z,0.22
2022-12-11T21:38:29.368Z,0.19
2022-12-11T21:40:56.420Z,0.16
2022-12-11T21:43:24.012Z,0.15
2022-12-11T21:46:06.490Z,0.15
2022-12-11T21:48:33.237Z,0.15
2022-12-11T21:51:10.248Z,0.15
2022-12-11T21:53:36.904Z,0.15
2022-12-11T21:56:09.421Z,0.17
2022-12-11T21:58:37.689Z,0.17
2022-12-11T22:01:06.760Z,0.16
2022-12-11T22:03:33.219Z,0.14
2022-12-11T22:05:59.537Z,0.15
2022-12-11T22:08:26.025Z,0.16
2022-12-11T22:10:52.542Z,0.16
2022-12-11T22:13:19.093Z,0.16
2022-12-11T22:15:45.916Z,0.18
2022-12-11T22:18:12.866Z,0.18
2022-12-11T22:20:39.220Z,0.17
2022-12-11T22:23:05.548Z,0.17
2022-12-11T22:25:31.944Z,0.15
2022-12-11T22:27:58.347Z,0.16
2022-12-11T22:30:24.868Z,0.15
2022-12-11T22:32:51.271Z,0.14
2022-12-11T22:35:17.849Z,0.14
2022-12-11T22:37:44.190Z,0.15
2022-12-11T22:40:10.837Z,0.14
2022-12-11T22:42:37.185Z,0.13
2022-12-11T22:45:04.337Z,0.10
2022-12-11T22:47:30.723Z,0.12
2022-12-11T22:49:57.112Z,0.10
2022-12-11T22:52:23.563Z,0.10
2022-12-11T22:54:50.006Z,0.09
2022-12-11T22:57:16.350Z,0.10
2022-12-11T22:59:42.776Z,0.09
2022-12-11T23:02:09.368Z,0.07
2022-12-11T23:04:35.871Z,0.11
2022-12-11T23:07:02.383Z,0.08
2022-12-11T23:09:28.809Z,0.08
2022-12-11T23:11:55.738Z,0.10
2022-12-11T23:14:22.303Z,0.09
2022-12-11T23:16:48.735Z,0.09
2022-12-11T23:19:16.293Z,0.07
2022-12-11T23:21:44.183Z,0.09
2022-12-11T23:24:10.944Z,0.10
2022-12-11T23:26:37.509Z,0.10
2022-12-11T23:29:05.653Z,0.08
2022-12-11T23:31:32.879Z,0.07
2022-12-11T23:33:59.707Z,0.05
2022-12-11T23:36:26.597Z,0.04
2022-12-11T23:38:54.974Z,0.05
2022-12-11T23:41:22.365Z,0.05
2022-12-11T23:43:48.769Z,0.06
2022-12-11T23:46:19.019Z,0.07
2022-12-11T23:48:46.093Z,0.07
2022-12-11T23:51:15.430Z,0.10
2022-12-11T23:53:42.383Z,0.07
2022-12-11T23:56:12.358Z,0.06
2022-12-11T23:58:39.713Z,0.07
